sensor_id;sensor_type;location;lat;lon;timestamp;temperature;humidity
39675;DHT22;27790;50.840;4.386;2022-10-16T01:31:05;15.60;99.90
39675;DHT22;27790;50.840;4.386;2022-10-16T01:33:44;15.60;99.90
39675;DHT22;27790;50.840;4.386;2022-10-16T01:36:18;15.60;99.90
39675;DHT22;27790;50.840;4.386;2022-10-16T01:38:49;15.60;99.90
39675;DHT22;27790;50.840;4.386;2022-10-16T01:41:28;15.60;99.90
39675;DHT22;27790;50.840;4.386;2022-10-16T01:44:02;15.60;99.90
39675;DHT22;27790;50.840;4.386;2022-10-16T01:46:31;15.60;99.90
39675;DHT22;27790;50.840;4.386;2022-10-16T01:48:57;15.70;99.90
39675;DHT22;27790;50.840;4.386;2022-10-16T01:51:25;15.60;99.90
39675;DHT22;27790;50.840;4.386;2022-10-16T01:53:54;15.60;99.90
39675;DHT22;27790;50.840;4.386;2022-10-16T01:56:22;15.60;99.90
39675;DHT22;27790;50.840;4.386;2022-10-16T01:58:58;15.60;99.90
39675;DHT22;27790;50.840;4.386;2022-10-16T02:01:29;15.60;99.90
39675;DHT22;27790;50.840;4.386;2022-10-16T02:03:58;15.60;99.90
39675;DHT22;27790;50.840;4.386;2022-10-16T02:06:25;15.60;99.90
39675;DHT22;27790;50.840;4.386;2022-10-16T02:08:51;15.60;99.90
39675;DHT22;27790;50.840;4.386;2022-10-16T02:11:16;15.60;99.90
39675;DHT22;27790;50.840;4.386;2022-10-16T02:13:50;15.60;99.90
39675;DHT22;27790;50.840;4.386;2022-10-16T02:16:16;15.60;99.90
39675;DHT22;27790;50.840;4.386;2022-10-16T02:18:43;15.60;99.90
39675;DHT22;27790;50.840;4.386;2022-10-16T02:21:24;15.60;99.90
39675;DHT22;27790;50.840;4.386;2022-10-16T02:29:14;15.60;99.90
39675;DHT22;27790;50.840;4.386;2022-10-16T02:31:45;15.60;99.90
39675;DHT22;27790;50.840;4.386;2022-10-16T02:34:13;15.60;99.90
39675;DHT22;27790;50.840;4.386;2022-10-16T02:36:41;15.50;99.90
39675;DHT22;27790;50.840;4.386;2022-10-16T02:39:07;15.50;99.90
39675;DHT22;27790;50.840;4.386;2022-10-16T02:41:33;15.60;99.90
39675;DHT22;27790;50.840;4.386;2022-10-16T02:43:59;15.50;99.90
39675;DHT22;27790;50.840;4.386;2022-10-16T02:46:24;15.60;99.90
39675;DHT22;27790;50.840;4.386;2022-10-16T02:48:50;15.50;99.90
39675;DHT22;27790;50.840;4.386;2022-10-16T02:51:16;15.50;99.90
39675;DHT22;27790;50.840;4.386;2022-10-16T02:53:41;15.50;99.90
39675;DHT22;27790;50.840;4.386;2022-10-16T02:56:07;15.50;99.90
39675;DHT22;27790;50.840;4.386;2022-10-16T02:58:32;15.50;99.90
39675;DHT22;27790;50.840;4.386;2022-10-16T03:00:58;15.50;99.90
39675;DHT22;27790;50.840;4.386;2022-10-16T03:03:23;15.50;99.90
39675;DHT22;27790;50.840;4.386;2022-10-16T03:05:49;15.60;99.90
39675;DHT22;27790;50.840;4.386;2022-10-16T03:08:14;15.60;99.90
39675;DHT22;27790;50.840;4.386;2022-10-16T03:10:40;15.60;99.90
39675;DHT22;27790;50.840;4.386;2022-10-16T03:13:06;15.50;99.90
39675;DHT22;27790;50.840;4.386;2022-10-16T03:15:32;15.50;99.90
39675;DHT22;27790;50.840;4.386;2022-10-16T03:17:58;15.60;99.90
39675;DHT22;27790;50.840;4.386;2022-10-16T03:20:24;15.60;99.90
39675;DHT22;27790;50.840;4.386;2022-10-16T03:22:49;15.60;99.90
39675;DHT22;27790;50.840;4.386;2022-10-16T03:25:15;15.60;99.90
39675;DHT22;27790;50.840;4.386;2022-10-16T03:27:41;15.60;99.90
39675;DHT22;27790;50.840;4.386;2022-10-16T03:30:07;15.60;99.90
39675;DHT22;27790;50.840;4.386;2022-10-16T03:32:32;15.60;99.90
39675;DHT22;27790;50.840;4.386;2022-10-16T03:34:58;15.60;99.90
39675;DHT22;27790;50.840;4.386;2022-10-16T03:37:24;15.60;99.90
39675;DHT22;27790;50.840;4.386;2022-10-16T03:39:49;15.60;99.90
39675;DHT22;27790;50.840;4.386;2022-10-16T03:42:15;15.60;99.90
39675;DHT22;27790;50.840;4.386;2022-10-16T03:44:40;15.60;99.90
39675;DHT22;27790;50.840;4.386;2022-10-16T03:47:06;15.60;99.90
39675;DHT22;27790;50.840;4.386;2022-10-16T03:49:31;15.60;99.90
39675;DHT22;27790;50.840;4.386;2022-10-16T03:51:57;15.60;99.90
39675;DHT22;27790;50.840;4.386;2022-10-16T03:54:23;15.60;99.90
39675;DHT22;27790;50.840;4.386;2022-10-16T03:56:48;15.60;99.90
39675;DHT22;27790;50.840;4.386;2022-10-16T03:59:14;15.60;99.90
39675;DHT22;27790;50.840;4.386;2022-10-16T04:01:39;15.60;99.90
39675;DHT22;27790;50.840;4.386;2022-10-16T04:04:05;15.60;99.90
39675;DHT22;27790;50.840;4.386;2022-10-16T04:06:31;15.60;99.90
39675;DHT22;27790;50.840;4.386;2022-10-16T04:08:57;15.60;99.90
39675;DHT22;27790;50.840;4.386;2022-10-16T04:11:22;15.60;99.90
39675;DHT22;27790;50.840;4.386;2022-10-16T04:13:48;15.60;99.90
39675;DHT22;27790;50.840;4.386;2022-10-16T04:16:13;15.60;99.90
39675;DHT22;27790;50.840;4.386;2022-10-16T04:18:39;15.60;99.90
39675;DHT22;27790;50.840;4.386;2022-10-16T04:21:06;15.50;99.90
39675;DHT22;27790;50.840;4.386;2022-10-16T04:23:32;15.50;99.90
39675;DHT22;27790;50.840;4.386;2022-10-16T04:25:58;15.50;99.90
39675;DHT22;27790;50.840;4.386;2022-10-16T04:28:24;15.50;99.90
39675;DHT22;27790;50.840;4.386;2022-10-16T04:30:49;15.50;99.90
39675;DHT22;27790;50.840;4.386;2022-10-16T04:33:15;15.50;99.90
39675;DHT22;27790;50.840;4.386;2022-10-16T04:35:41;15.50;99.90
39675;DHT22;27790;50.840;4.386;2022-10-16T04:38:07;15.50;99.90
39675;DHT22;27790;50.840;4.386;2022-10-16T04:40:32;15.40;99.90
39675;DHT22;27790;50.840;4.386;2022-10-16T04:42:59;15.40;99.90
39675;DHT22;27790;50.840;4.386;2022-10-16T04:45:24;15.40;99.90
39675;DHT22;27790;50.840;4.386;2022-10-16T04:47:50;15.40;99.90
39675;DHT22;27790;50.840;4.386;2022-10-16T04:50:16;15.40;99.90
39675;DHT22;27790;50.840;4.386;2022-10-16T04:52:41;15.30;99.90
39675;DHT22;27790;50.840;4.386;2022-10-16T04:55:07;15.30;99.90
39675;DHT22;27790;50.840;4.386;2022-10-16T04:57:33;15.40;99.90
39675;DHT22;27790;50.840;4.386;2022-10-16T04:59:58;15.30;99.90
39675;DHT22;27790;50.840;4.386;2022-10-16T05:02:24;15.40;99.90
39675;DHT22;27790;50.840;4.386;2022-10-16T05:04:50;15.30;99.90
39675;DHT22;27790;50.840;4.386;2022-10-16T05:07:16;15.30;99.90
39675;DHT22;27790;50.840;4.386;2022-10-16T05:09:42;15.40;99.90
39675;DHT22;27790;50.840;4.386;2022-10-16T05:12:07;15.40;99.90
39675;DHT22;27790;50.840;4.386;2022-10-16T05:14:33;15.30;99.90
39675;DHT22;27790;50.840;4.386;2022-10-16T05:17:00;15.30;99.90
39675;DHT22;27790;50.840;4.386;2022-10-16T05:19:25;15.30;99.90
39675;DHT22;27790;50.840;4.386;2022-10-16T05:21:51;15.30;99.90
39675;DHT22;27790;50.840;4.386;2022-10-16T05:24:17;15.20;99.90
39675;DHT22;27790;50.840;4.386;2022-10-16T05:26:42;15.10;99.90
39675;DHT22;27790;50.840;4.386;2022-10-16T05:29:09;15.10;99.90
39675;DHT22;27790;50.840;4.386;2022-10-16T05:31:34;15.00;99.90
39675;DHT22;27790;50.840;4.386;2022-10-16T05:34:00;15.00;99.90
39675;DHT22;27790;50.840;4.386;2022-10-16T05:36:26;15.10;99.90
39675;DHT22;27790;50.840;4.386;2022-10-16T05:38:52;15.10;99.90
39675;DHT22;27790;50.840;4.386;2022-10-16T05:41:18;15.00;99.90
39675;DHT22;27790;50.840;4.386;2022-10-16T05:43:47;15.00;99.90
39675;DHT22;27790;50.840;4.386;2022-10-16T05:46:13;15.00;99.90
39675;DHT22;27790;50.840;4.386;2022-10-16T05:48:39;14.90;99.90
39675;DHT22;27790;50.840;4.386;2022-10-16T05:51:07;15.00;99.90
39675;DHT22;27790;50.840;4.386;2022-10-16T05:53:34;15.00;99.90
39675;DHT22;27790;50.840;4.386;2022-10-16T05:56:00;15.00;99.90
39675;DHT22;27790;50.840;4.386;2022-10-16T05:58:31;15.00;99.90
39675;DHT22;27790;50.840;4.386;2022-10-16T06:01:03;14.90;99.90
39675;DHT22;27790;50.840;4.386;2022-10-16T06:03:29;15.00;99.90
39675;DHT22;27790;50.840;4.386;2022-10-16T06:05:54;15.00;99.90
39675;DHT22;27790;50.840;4.386;2022-10-16T06:08:21;15.00;99.90
39675;DHT22;27790;50.840;4.386;2022-10-16T06:10:48;15.00;99.90
39675;DHT22;27790;50.840;4.386;2022-10-16T06:13:14;15.00;99.90
39675;DHT22;27790;50.840;4.386;2022-10-16T06:15:41;15.00;99.90
39675;DHT22;27790;50.840;4.386;2022-10-16T06:18:10;15.00;99.90
39675;DHT22;27790;50.840;4.386;2022-10-16T06:20:37;15.00;99.90
39675;DHT22;27790;50.840;4.386;2022-10-16T06:23:03;15.00;99.90
39675;DHT22;27790;50.840;4.386;2022-10-16T06:25:30;15.00;99.90
39675;DHT22;27790;50.840;4.386;2022-10-16T06:27:56;15.00;99.90
39675;DHT22;27790;50.840;4.386;2022-10-16T06:30:21;15.10;99.90
39675;DHT22;27790;50.840;4.386;2022-10-16T06:32:47;15.10;99.90
39675;DHT22;27790;50.840;4.386;2022-10-16T06:35:12;15.20;99.90
39675;DHT22;27790;50.840;4.386;2022-10-16T06:37:38;15.20;99.90
39675;DHT22;27790;50.840;4.386;2022-10-16T06:40:04;15.30;99.90
39675;DHT22;27790;50.840;4.386;2022-10-16T06:42:30;15.30;99.90
39675;DHT22;27790;50.840;4.386;2022-10-16T06:44:56;15.40;99.90
39675;DHT22;27790;50.840;4.386;2022-10-16T06:47:21;15.50;99.90
39675;DHT22;27790;50.840;4.386;2022-10-16T06:49:47;15.50;99.90
39675;DHT22;27790;50.840;4.386;2022-10-16T06:52:12;15.60;99.90
39675;DHT22;27790;50.840;4.386;2022-10-16T06:54:38;15.70;99.90
39675;DHT22;27790;50.840;4.386;2022-10-16T06:57:03;15.80;99.90
39675;DHT22;27790;50.840;4.386;2022-10-16T06:59:29;15.90;99.90
39675;DHT22;27790;50.840;4.386;2022-10-16T07:01:54;16.00;99.90
39675;DHT22;27790;50.840;4.386;2022-10-16T07:04:20;16.10;99.90
39675;DHT22;27790;50.840;4.386;2022-10-16T07:06:46;16.00;99.90
39675;DHT22;27790;50.840;4.386;2022-10-16T07:09:12;16.10;99.90
39675;DHT22;27790;50.840;4.386;2022-10-16T07:11:38;16.00;99.90
39675;DHT22;27790;50.840;4.386;2022-10-16T07:14:05;16.00;99.90
39675;DHT22;27790;50.840;4.386;2022-10-16T07:16:34;16.10;99.90
39675;DHT22;27790;50.840;4.386;2022-10-16T07:19:01;16.10;99.90
39675;DHT22;27790;50.840;4.386;2022-10-16T07:21:29;16.10;99.90
39675;DHT22;27790;50.840;4.386;2022-10-16T07:24:00;16.10;99.90
39675;DHT22;27790;50.840;4.386;2022-10-16T07:26:28;16.10;99.90
39675;DHT22;27790;50.840;4.386;2022-10-16T07:28:55;16.10;99.90
39675;DHT22;27790;50.840;4.386;2022-10-16T07:31:22;16.20;99.90
39675;DHT22;27790;50.840;4.386;2022-10-16T07:33:49;16.50;99.90
39675;DHT22;27790;50.840;4.386;2022-10-16T07:36:16;17.00;99.90
39675;DHT22;27790;50.840;4.386;2022-10-16T07:38:43;17.40;99.90
39675;DHT22;27790;50.840;4.386;2022-10-16T07:41:14;17.60;99.90
39675;DHT22;27790;50.840;4.386;2022-10-16T07:43:40;17.90;99.90
39675;DHT22;27790;50.840;4.386;2022-10-16T07:46:05;18.50;99.90
39675;DHT22;27790;50.840;4.386;2022-10-16T07:48:33;19.00;99.90
39675;DHT22;27790;50.840;4.386;2022-10-16T07:50:59;19.40;99.90
39675;DHT22;27790;50.840;4.386;2022-10-16T07:53:26;19.90;99.90
39675;DHT22;27790;50.840;4.386;2022-10-16T07:55:52;20.40;99.90
39675;DHT22;27790;50.840;4.386;2022-10-16T07:58:22;20.70;99.90
39675;DHT22;27790;50.840;4.386;2022-10-16T08:00:47;21.00;99.90
39675;DHT22;27790;50.840;4.386;2022-10-16T08:03:13;21.30;99.90
39675;DHT22;27790;50.840;4.386;2022-10-16T08:05:38;21.70;99.90
39675;DHT22;27790;50.840;4.386;2022-10-16T08:08:04;21.90;99.90
39675;DHT22;27790;50.840;4.386;2022-10-16T08:10:29;22.20;99.90
39675;DHT22;27790;50.840;4.386;2022-10-16T08:12:55;22.40;99.90
39675;DHT22;27790;50.840;4.386;2022-10-16T08:15:21;22.50;99.90
39675;DHT22;27790;50.840;4.386;2022-10-16T08:17:58;22.60;99.90
39675;DHT22;27790;50.840;4.386;2022-10-16T08:20:25;22.70;99.90
39675;DHT22;27790;50.840;4.386;2022-10-16T08:22:50;22.80;99.80
39675;DHT22;27790;50.840;4.386;2022-10-16T08:25:16;23.00;99.20
39675;DHT22;27790;50.840;4.386;2022-10-16T08:27:42;22.90;99.10
39675;DHT22;27790;50.840;4.386;2022-10-16T08:30:08;23.00;98.80
39675;DHT22;27790;50.840;4.386;2022-10-16T08:32:34;23.20;98.00
39675;DHT22;27790;50.840;4.386;2022-10-16T08:37:43;23.30;97.30
39675;DHT22;27790;50.840;4.386;2022-10-16T08:40:22;23.10;97.40
39675;DHT22;27790;50.840;4.386;2022-10-16T08:50:52;20.80;99.90
39675;DHT22;27790;50.840;4.386;2022-10-16T08:54:12;20.50;99.90
39675;DHT22;27790;50.840;4.386;2022-10-16T08:56:17;20.00;99.90
39675;DHT22;27790;50.840;4.386;2022-10-16T08:58:45;19.70;99.90
39675;DHT22;27790;50.840;4.386;2022-10-16T09:01:14;19.50;99.90
39675;DHT22;27790;50.840;4.386;2022-10-16T09:11:56;18.90;99.90
39675;DHT22;27790;50.840;4.386;2022-10-16T09:22:37;18.80;99.90
39675;DHT22;27790;50.840;4.386;2022-10-16T09:25:15;18.80;99.90
39675;DHT22;27790;50.840;4.386;2022-10-16T09:27:45;18.80;99.90
39675;DHT22;27790;50.840;4.386;2022-10-16T09:30:14;18.80;99.90
39675;DHT22;27790;50.840;4.386;2022-10-16T09:32:40;18.80;99.90
39675;DHT22;27790;50.840;4.386;2022-10-16T09:35:13;18.80;99.90
39675;DHT22;27790;50.840;4.386;2022-10-16T09:37:41;18.90;99.90
39675;DHT22;27790;50.840;4.386;2022-10-16T09:42:49;18.90;99.90
39675;DHT22;27790;50.840;4.386;2022-10-16T09:45:22;19.00;99.90
39675;DHT22;27790;50.840;4.386;2022-10-16T09:47:48;19.00;99.90
39675;DHT22;27790;50.840;4.386;2022-10-16T09:50:25;19.10;99.90
39675;DHT22;27790;50.840;4.386;2022-10-16T09:53:07;19.20;99.90
39675;DHT22;27790;50.840;4.386;2022-10-16T09:55:33;19.30;99.90
39675;DHT22;27790;50.840;4.386;2022-10-16T09:57:59;19.30;99.90
39675;DHT22;27790;50.840;4.386;2022-10-16T10:00:25;19.30;99.90
39675;DHT22;27790;50.840;4.386;2022-10-16T10:02:51;19.40;99.90
39675;DHT22;27790;50.840;4.386;2022-10-16T10:05:23;19.30;99.90
39675;DHT22;27790;50.840;4.386;2022-10-16T10:07:58;19.20;99.90
39675;DHT22;27790;50.840;4.386;2022-10-16T10:10:29;19.30;99.90
39675;DHT22;27790;50.840;4.386;2022-10-16T10:12:55;19.20;99.90
39675;DHT22;27790;50.840;4.386;2022-10-16T10:15:22;19.30;99.90
39675;DHT22;27790;50.840;4.386;2022-10-16T10:17:54;19.30;99.90
39675;DHT22;27790;50.840;4.386;2022-10-16T10:20:32;19.30;99.90
39675;DHT22;27790;50.840;4.386;2022-10-16T10:23:13;19.40;99.90
39675;DHT22;27790;50.840;4.386;2022-10-16T10:33:48;19.60;99.90
39675;DHT22;27790;50.840;4.386;2022-10-16T10:36:35;19.40;99.90
39675;DHT22;27790;50.840;4.386;2022-10-16T10:39:17;19.40;99.90
39675;DHT22;27790;50.840;4.386;2022-10-16T10:52:45;20.10;99.90
39675;DHT22;27790;50.840;4.386;2022-10-16T11:06:16;20.20;99.90
39675;DHT22;27790;50.840;4.386;2022-10-16T11:08:44;20.00;99.90
39675;DHT22;27790;50.840;4.386;2022-10-16T11:11:15;19.80;99.90
39675;DHT22;27790;50.840;4.386;2022-10-16T11:13:49;19.70;99.90
39675;DHT22;27790;50.840;4.386;2022-10-16T11:16:34;19.60;99.90
39675;DHT22;27790;50.840;4.386;2022-10-16T11:19:13;19.50;99.90
39675;DHT22;27790;50.840;4.386;2022-10-16T11:21:49;19.50;99.90
39675;DHT22;27790;50.840;4.386;2022-10-16T11:24:24;19.70;99.90
39675;DHT22;27790;50.840;4.386;2022-10-16T11:26:53;19.90;99.90
39675;DHT22;27790;50.840;4.386;2022-10-16T11:29:26;19.90;99.90
39675;DHT22;27790;50.840;4.386;2022-10-16T11:31:58;20.00;99.90
39675;DHT22;27790;50.840;4.386;2022-10-16T11:34:32;19.90;99.90
39675;DHT22;27790;50.840;4.386;2022-10-16T11:39:48;19.90;99.90
39675;DHT22;27790;50.840;4.386;2022-10-16T11:45:02;20.00;99.90
39675;DHT22;27790;50.840;4.386;2022-10-16T11:47:41;20.00;99.90
39675;DHT22;27790;50.840;4.386;2022-10-16T11:55:38;19.80;98.90
39675;DHT22;27790;50.840;4.386;2022-10-16T11:58:12;19.80;99.20
39675;DHT22;27790;50.840;4.386;2022-10-16T12:03:45;20.00;98.50
39675;DHT22;27790;50.840;4.386;2022-10-16T12:06:18;20.20;98.40
39675;DHT22;27790;50.840;4.386;2022-10-16T12:08:49;20.40;98.80
39675;DHT22;27790;50.840;4.386;2022-10-16T12:14:06;20.70;99.30
39675;DHT22;27790;50.840;4.386;2022-10-16T12:16:32;20.90;99.00
39675;DHT22;27790;50.840;4.386;2022-10-16T12:19:15;21.00;99.00
39675;DHT22;27790;50.840;4.386;2022-10-16T12:21:43;21.00;99.30
39675;DHT22;27790;50.840;4.386;2022-10-16T12:24:27;21.00;98.50
39675;DHT22;27790;50.840;4.386;2022-10-16T12:26:55;20.80;98.60
39675;DHT22;27790;50.840;4.386;2022-10-16T12:29:36;20.70;99.10
39675;DHT22;27790;50.840;4.386;2022-10-16T12:34:56;20.60;98.50
39675;DHT22;27790;50.840;4.386;2022-10-16T12:37:35;20.60;98.70
39675;DHT22;27790;50.840;4.386;2022-10-16T12:42:38;20.80;98.20
39675;DHT22;27790;50.840;4.386;2022-10-16T12:45:30;21.00;97.70
39675;DHT22;27790;50.840;4.386;2022-10-16T12:47:57;21.00;97.50
39675;DHT22;27790;50.840;4.386;2022-10-16T12:50:29;21.00;97.40
39675;DHT22;27790;50.840;4.386;2022-10-16T12:52:59;21.00;97.60
39675;DHT22;27790;50.840;4.386;2022-10-16T12:55:26;21.10;97.70
39675;DHT22;27790;50.840;4.386;2022-10-16T13:00:44;21.00;97.70
39675;DHT22;27790;50.840;4.386;2022-10-16T13:06:02;21.10;98.00
39675;DHT22;27790;50.840;4.386;2022-10-16T13:13:53;21.30;97.40
39675;DHT22;27790;50.840;4.386;2022-10-16T13:30:21;21.40;97.00
39675;DHT22;27790;50.840;4.386;2022-10-16T13:32:49;21.30;97.20
39675;DHT22;27790;50.840;4.386;2022-10-16T13:35:23;21.40;97.30
39675;DHT22;27790;50.840;4.386;2022-10-16T13:37:50;21.40;97.40
39675;DHT22;27790;50.840;4.386;2022-10-16T13:40:21;21.40;97.10
39675;DHT22;27790;50.840;4.386;2022-10-16T13:42:47;21.50;97.20
39675;DHT22;27790;50.840;4.386;2022-10-16T13:45:22;21.50;97.20
39675;DHT22;27790;50.840;4.386;2022-10-16T13:47:48;21.40;97.00
39675;DHT22;27790;50.840;4.386;2022-10-16T13:50:16;21.40;97.00
39675;DHT22;27790;50.840;4.386;2022-10-16T13:52:42;21.20;97.20
39675;DHT22;27790;50.840;4.386;2022-10-16T13:55:16;21.20;96.50
39675;DHT22;27790;50.840;4.386;2022-10-16T13:57:42;21.10;96.70
39675;DHT22;27790;50.840;4.386;2022-10-16T14:00:22;21.10;97.20
39675;DHT22;27790;50.840;4.386;2022-10-16T14:03:03;21.00;97.20
39675;DHT22;27790;50.840;4.386;2022-10-16T14:05:29;21.00;96.60
39675;DHT22;27790;50.840;4.386;2022-10-16T14:07:55;21.00;96.70
39675;DHT22;27790;50.840;4.386;2022-10-16T14:10:27;21.10;96.70
39675;DHT22;27790;50.840;4.386;2022-10-16T14:13:00;21.10;96.70
39675;DHT22;27790;50.840;4.386;2022-10-16T14:15:27;21.00;96.80
39675;DHT22;27790;50.840;4.386;2022-10-16T14:17:55;21.00;97.30
39675;DHT22;27790;50.840;4.386;2022-10-16T14:20:24;21.00;97.00
39675;DHT22;27790;50.840;4.386;2022-10-16T14:23:34;21.00;96.80
39675;DHT22;27790;50.840;4.386;2022-10-16T14:25:51;21.10;96.90
39675;DHT22;27790;50.840;4.386;2022-10-16T14:28:22;21.10;97.00
39675;DHT22;27790;50.840;4.386;2022-10-16T14:30:59;21.10;97.20
39675;DHT22;27790;50.840;4.386;2022-10-16T14:38:27;20.90;97.40
39675;DHT22;27790;50.840;4.386;2022-10-16T14:40:53;20.90;97.40
39675;DHT22;27790;50.840;4.386;2022-10-16T14:43:30;20.90;97.80
39675;DHT22;27790;50.840;4.386;2022-10-16T14:45:57;20.80;97.70
39675;DHT22;27790;50.840;4.386;2022-10-16T14:48:23;20.70;98.00
39675;DHT22;27790;50.840;4.386;2022-10-16T14:50:49;20.70;98.00
39675;DHT22;27790;50.840;4.386;2022-10-16T14:53:15;20.70;98.10
39675;DHT22;27790;50.840;4.386;2022-10-16T14:55:42;20.70;98.00
39675;DHT22;27790;50.840;4.386;2022-10-16T14:58:19;20.70;97.70
39675;DHT22;27790;50.840;4.386;2022-10-16T15:00:45;20.70;97.80
39675;DHT22;27790;50.840;4.386;2022-10-16T15:03:11;20.60;97.90
39675;DHT22;27790;50.840;4.386;2022-10-16T15:05:37;20.60;98.00
39675;DHT22;27790;50.840;4.386;2022-10-16T15:08:03;20.60;98.20
39675;DHT22;27790;50.840;4.386;2022-10-16T15:10:31;20.50;98.30
39675;DHT22;27790;50.840;4.386;2022-10-16T15:12:58;20.60;98.20
39675;DHT22;27790;50.840;4.386;2022-10-16T15:17:50;20.60;98.10
39675;DHT22;27790;50.840;4.386;2022-10-16T15:20:19;20.50;97.70
39675;DHT22;27790;50.840;4.386;2022-10-16T15:22:44;20.50;97.90
39675;DHT22;27790;50.840;4.386;2022-10-16T15:25:38;20.40;98.00
39675;DHT22;27790;50.840;4.386;2022-10-16T15:28:07;20.40;98.20
39675;DHT22;27790;50.840;4.386;2022-10-16T15:30:33;20.40;98.20
39675;DHT22;27790;50.840;4.386;2022-10-16T15:32:59;20.40;98.30
39675;DHT22;27790;50.840;4.386;2022-10-16T15:35:24;20.40;98.40
39675;DHT22;27790;50.840;4.386;2022-10-16T15:37:50;20.40;98.30
39675;DHT22;27790;50.840;4.386;2022-10-16T15:40:18;20.30;98.30
39675;DHT22;27790;50.840;4.386;2022-10-16T15:42:44;20.30;98.50
39675;DHT22;27790;50.840;4.386;2022-10-16T15:45:11;20.20;98.70
39675;DHT22;27790;50.840;4.386;2022-10-16T15:47:37;20.20;98.90
39675;DHT22;27790;50.840;4.386;2022-10-16T15:50:03;20.20;99.10
39675;DHT22;27790;50.840;4.386;2022-10-16T15:52:29;20.20;99.10
39675;DHT22;27790;50.840;4.386;2022-10-16T15:54:57;20.10;99.10
39675;DHT22;27790;50.840;4.386;2022-10-16T15:57:22;20.10;99.20
39675;DHT22;27790;50.840;4.386;2022-10-16T15:59:49;20.10;99.40
39675;DHT22;27790;50.840;4.386;2022-10-16T16:02:14;20.10;99.70
39675;DHT22;27790;50.840;4.386;2022-10-16T16:04:40;20.00;99.80
39675;DHT22;27790;50.840;4.386;2022-10-16T16:07:06;20.00;99.90
39675;DHT22;27790;50.840;4.386;2022-10-16T16:09:33;19.90;99.90
39675;DHT22;27790;50.840;4.386;2022-10-16T16:11:58;19.90;99.90
39675;DHT22;27790;50.840;4.386;2022-10-16T16:14:26;19.90;99.90
39675;DHT22;27790;50.840;4.386;2022-10-16T16:16:56;19.80;99.90
39675;DHT22;27790;50.840;4.386;2022-10-16T16:19:22;19.70;99.90
39675;DHT22;27790;50.840;4.386;2022-10-16T16:21:49;19.60;99.90
39675;DHT22;27790;50.840;4.386;2022-10-16T16:24:15;19.50;99.90
39675;DHT22;27790;50.840;4.386;2022-10-16T16:26:41;19.50;99.90
39675;DHT22;27790;50.840;4.386;2022-10-16T16:29:13;19.60;99.90
39675;DHT22;27790;50.840;4.386;2022-10-16T16:31:39;19.50;99.90
39675;DHT22;27790;50.840;4.386;2022-10-16T16:34:05;19.50;99.90
39675;DHT22;27790;50.840;4.386;2022-10-16T16:36:31;19.50;99.90
39675;DHT22;27790;50.840;4.386;2022-10-16T16:38:57;19.50;99.90
39675;DHT22;27790;50.840;4.386;2022-10-16T16:41:26;19.40;99.90
39675;DHT22;27790;50.840;4.386;2022-10-16T16:43:52;19.40;99.90
39675;DHT22;27790;50.840;4.386;2022-10-16T16:46:19;19.40;99.90
39675;DHT22;27790;50.840;4.386;2022-10-16T16:48:45;19.40;99.90
39675;DHT22;27790;50.840;4.386;2022-10-16T16:51:13;19.30;99.90
39675;DHT22;27790;50.840;4.386;2022-10-16T16:53:42;19.30;99.90
39675;DHT22;27790;50.840;4.386;2022-10-16T16:56:08;19.30;99.90
39675;DHT22;27790;50.840;4.386;2022-10-16T16:58:34;19.40;99.90
39675;DHT22;27790;50.840;4.386;2022-10-16T17:01:00;19.40;99.90
39675;DHT22;27790;50.840;4.386;2022-10-16T17:03:31;19.40;99.90
39675;DHT22;27790;50.840;4.386;2022-10-16T17:06:03;19.50;99.90
39675;DHT22;27790;50.840;4.386;2022-10-16T17:08:29;19.60;99.90
39675;DHT22;27790;50.840;4.386;2022-10-16T17:10:56;19.50;99.90
39675;DHT22;27790;50.840;4.386;2022-10-16T17:13:23;19.40;99.90
39675;DHT22;27790;50.840;4.386;2022-10-16T17:15:51;19.30;99.90
39675;DHT22;27790;50.840;4.386;2022-10-16T17:18:17;19.20;99.90
39675;DHT22;27790;50.840;4.386;2022-10-16T17:20:43;19.20;99.90
39675;DHT22;27790;50.840;4.386;2022-10-16T17:23:10;19.10;99.90
39675;DHT22;27790;50.840;4.386;2022-10-16T17:25:40;19.00;99.90
39675;DHT22;27790;50.840;4.386;2022-10-16T17:28:07;19.00;99.90
39675;DHT22;27790;50.840;4.386;2022-10-16T17:30:33;18.90;99.90
39675;DHT22;27790;50.840;4.386;2022-10-16T17:33:00;18.80;99.90
39675;DHT22;27790;50.840;4.386;2022-10-16T17:35:27;18.80;99.90
39675;DHT22;27790;50.840;4.386;2022-10-16T17:37:53;18.70;99.90
39675;DHT22;27790;50.840;4.386;2022-10-16T17:40:19;18.70;99.90
39675;DHT22;27790;50.840;4.386;2022-10-16T17:42:45;18.70;99.90
39675;DHT22;27790;50.840;4.386;2022-10-16T17:45:13;18.70;99.90
39675;DHT22;27790;50.840;4.386;2022-10-16T17:47:39;18.60;99.90
39675;DHT22;27790;50.840;4.386;2022-10-16T17:50:07;18.60;99.90
39675;DHT22;27790;50.840;4.386;2022-10-16T17:52:32;18.60;99.90
39675;DHT22;27790;50.840;4.386;2022-10-16T17:54:58;18.60;99.90
39675;DHT22;27790;50.840;4.386;2022-10-16T17:57:24;18.60;99.90
39675;DHT22;27790;50.840;4.386;2022-10-16T17:59:50;18.60;99.90
39675;DHT22;27790;50.840;4.386;2022-10-16T18:02:15;18.60;99.90
39675;DHT22;27790;50.840;4.386;2022-10-16T18:04:42;18.60;99.90
39675;DHT22;27790;50.840;4.386;2022-10-16T18:07:08;18.60;99.90
39675;DHT22;27790;50.840;4.386;2022-10-16T18:09:34;18.60;99.90
39675;DHT22;27790;50.840;4.386;2022-10-16T18:12:00;18.60;99.90
39675;DHT22;27790;50.840;4.386;2022-10-16T18:14:30;18.60;99.90
39675;DHT22;27790;50.840;4.386;2022-10-16T18:16:56;18.60;99.90
39675;DHT22;27790;50.840;4.386;2022-10-16T18:19:23;18.50;99.90
39675;DHT22;27790;50.840;4.386;2022-10-16T18:21:50;18.50;99.90
39675;DHT22;27790;50.840;4.386;2022-10-16T18:24:17;18.50;99.90
39675;DHT22;27790;50.840;4.386;2022-10-16T18:26:43;18.40;99.90
39675;DHT22;27790;50.840;4.386;2022-10-16T18:29:10;18.30;99.90
39675;DHT22;27790;50.840;4.386;2022-10-16T18:31:36;18.10;99.90
39675;DHT22;27790;50.840;4.386;2022-10-16T18:34:02;18.00;99.90
39675;DHT22;27790;50.840;4.386;2022-10-16T18:36:32;18.00;99.90
39675;DHT22;27790;50.840;4.386;2022-10-16T18:39:01;18.00;99.90
39675;DHT22;27790;50.840;4.386;2022-10-16T18:41:28;18.10;99.90
39675;DHT22;27790;50.840;4.386;2022-10-16T18:43:54;18.10;99.90
39675;DHT22;27790;50.840;4.386;2022-10-16T18:46:24;18.20;99.90
39675;DHT22;27790;50.840;4.386;2022-10-16T18:48:50;18.30;99.90
39675;DHT22;27790;50.840;4.386;2022-10-16T18:51:27;18.30;99.90
39675;DHT22;27790;50.840;4.386;2022-10-16T18:53:57;18.30;99.90
39675;DHT22;27790;50.840;4.386;2022-10-16T18:56:24;18.20;99.90
39675;DHT22;27790;50.840;4.386;2022-10-16T18:58:51;18.20;99.90
39675;DHT22;27790;50.840;4.386;2022-10-16T19:01:20;18.20;99.90
39675;DHT22;27790;50.840;4.386;2022-10-16T19:03:56;18.20;99.90
39675;DHT22;27790;50.840;4.386;2022-10-16T19:06:23;18.10;99.90